TimeEST,TemperatureF,Dew PointF,Humidity,Sea Level PressureIn,VisibilityMPH,Wind Direction,Wind SpeedMPH,Gust SpeedMPH,PrecipitationIn,Events,Conditions,WindDirDegrees,DateUTC
12:14 AM,31.5,22.8,70,30.33,10.0,South,5.8,-,N/A,,Clear,180,2012-12-13 05:14:00
12:35 AM,31.5,22.8,70,30.33,10.0,South,5.8,-,N/A,,Clear,190,2012-12-13 05:35:00
12:55 AM,31.1,22.8,71,30.32,10.0,South,6.9,-,N/A,,Clear,180,2012-12-13 05:55:00
1:14 AM,31.1,22.8,71,30.32,10.0,South,6.9,-,N/A,,Clear,180,2012-12-13 06:14:00
1:35 AM,31.6,22.8,70,30.32,10.0,South,6.9,-,N/A,,Clear,180,2012-12-13 06:35:00
1:55 AM,30.7,22.8,72,30.32,10.0,South,4.6,-,N/A,,Clear,180,2012-12-13 06:55:00
2:14 AM,30.2,23.0,75,30.32,10.0,South,5.8,-,N/A,,Clear,180,2012-12-13 07:14:00
2:35 AM,30.9,23.0,72,30.32,10.0,South,5.8,-,N/A,,Clear,190,2012-12-13 07:35:00
2:54 AM,30.2,23.0,75,30.32,10.0,South,5.8,-,N/A,,Clear,180,2012-12-13 07:54:00
3:15 AM,27.3,21.7,80,30.33,10.0,SSE,3.5,-,N/A,,Clear,160,2012-12-13 08:15:00
3:35 AM,26.8,21.4,80,30.32,10.0,SSE,4.6,-,N/A,,Clear,150,2012-12-13 08:35:00
3:54 AM,27.3,22.5,82,30.32,10.0,South,5.8,-,N/A,,Clear,170,2012-12-13 08:54:00
4:15 AM,30.7,23.5,75,30.32,10.0,South,6.9,-,N/A,,Clear,190,2012-12-13 09:15:00
4:34 AM,30.6,23.0,74,30.32,10.0,SSW,6.9,-,N/A,,Clear,200,2012-12-13 09:34:00
4:54 AM,29.8,22.8,75,30.31,10.0,South,5.8,-,N/A,,Clear,190,2012-12-13 09:54:00
5:15 AM,30.0,23.0,75,30.31,10.0,South,8.1,-,N/A,,Clear,190,2012-12-13 10:15:00
5:34 AM,30.2,22.8,74,30.32,10.0,South,5.8,-,N/A,,Clear,190,2012-12-13 10:34:00
5:55 AM,30.2,22.6,73,30.31,10.0,South,6.9,-,N/A,,Clear,180,2012-12-13 10:55:00
6:14 AM,30.0,22.6,74,30.32,10.0,South,6.9,-,N/A,,Clear,180,2012-12-13 11:14:00
6:34 AM,28.2,21.6,76,30.32,10.0,SSE,5.8,-,N/A,,Clear,160,2012-12-13 11:34:00
6:55 AM,28.0,22.3,79,30.31,10.0,South,4.6,-,N/A,,Clear,170,2012-12-13 11:55:00
7:14 AM,29.1,22.6,77,30.32,10.0,South,6.9,-,N/A,,Clear,190,2012-12-13 12:14:00
7:35 AM,29.3,22.3,75,30.32,10.0,South,5.8,-,N/A,,Clear,180,2012-12-13 12:35:00
7:55 AM,28.4,21.9,77,30.32,10.0,South,4.6,-,N/A,,Clear,170,2012-12-13 12:55:00
8:14 AM,27.3,21.7,80,30.32,7.0,South,4.6,-,N/A,,Clear,170,2012-12-13 13:14:00
8:35 AM,28.9,22.8,78,30.32,7.0,SSE,4.6,-,N/A,,Clear,160,2012-12-13 13:35:00
8:55 AM,30.4,23.4,75,30.32,7.0,South,6.9,-,N/A,,Clear,180,2012-12-13 13:55:00
9:14 AM,31.8,23.4,71,30.32,10.0,South,8.1,-,N/A,,Clear,180,2012-12-13 14:14:00
9:35 AM,32.5,23.7,70,30.32,10.0,South,8.1,-,N/A,,Clear,180,2012-12-13 14:35:00
9:55 AM,33.8,23.9,67,30.32,10.0,South,9.2,-,N/A,,Clear,190,2012-12-13 14:55:00
10:14 AM,35.1,24.6,66,30.31,10.0,South,6.9,-,N/A,,Clear,190,2012-12-13 15:14:00
10:35 AM,36.5,24.6,62,30.31,10.0,South,9.2,-,N/A,,Clear,190,2012-12-13 15:35:00
10:54 AM,37.9,24.8,59,30.31,10.0,SSW,9.2,-,N/A,,Clear,200,2012-12-13 15:54:00
11:14 AM,39.6,23.5,53,30.29,10.0,SSW,10.4,17.3,N/A,,Clear,200,2012-12-13 16:14:00
11:35 AM,41.4,22.8,48,30.29,10.0,South,12.7,17.3,N/A,,Clear,190,2012-12-13 16:35:00
11:54 AM,41.9,21.9,45,30.28,10.0,SSW,11.5,16.1,N/A,,Clear,200,2012-12-13 16:54:00
12:14 PM,42.3,21.9,44,30.26,10.0,SSW,12.7,17.3,N/A,,Clear,200,2012-12-13 17:14:00
12:35 PM,43.0,21.7,43,30.25,10.0,SSW,10.4,-,N/A,,Clear,200,2012-12-13 17:35:00
12:54 PM,43.9,21.9,42,30.25,10.0,South,13.8,17.3,N/A,,Clear,180,2012-12-13 17:54:00
1:15 PM,44.6,21.0,39,30.24,10.0,South,10.4,-,N/A,,Clear,190,2012-12-13 18:15:00
1:35 PM,45.1,20.1,37,30.23,10.0,South,11.5,16.1,N/A,,Clear,190,2012-12-13 18:35:00
1:54 PM,45.5,19.2,35,30.23,10.0,South,11.5,17.3,N/A,,Clear,190,2012-12-13 18:54:00
2:15 PM,45.9,18.5,34,30.21,10.0,South,13.8,-,N/A,,Clear,190,2012-12-13 19:15:00
2:35 PM,46.2,17.4,32,30.20,10.0,SSW,11.5,-,N/A,,Clear,200,2012-12-13 19:35:00
2:54 PM,45.9,18.9,34,30.20,10.0,South,9.2,-,N/A,,Clear,190,2012-12-13 19:54:00
3:15 PM,45.5,18.9,35,30.19,10.0,South,13.8,17.3,N/A,,Clear,190,2012-12-13 20:15:00
3:35 PM,44.2,19.4,37,30.18,10.0,South,10.4,-,N/A,,Clear,190,2012-12-13 20:35:00
3:54 PM,44.2,19.2,37,30.18,10.0,South,10.4,16.1,N/A,,Clear,180,2012-12-13 20:54:00
4:15 PM,43.2,19.0,38,30.18,10.0,South,11.5,17.3,N/A,,Clear,180,2012-12-13 21:15:00
4:34 PM,42.6,18.5,38,30.17,10.0,South,10.4,16.1,N/A,,Clear,170,2012-12-13 21:34:00
4:54 PM,41.2,20.8,44,30.17,10.0,South,10.4,-,N/A,,Clear,170,2012-12-13 21:54:00
5:34 PM,39.9,21.6,48,30.17,10.0,South,8.1,-,N/A,,Clear,180,2012-12-13 22:34:00
7:55 PM,37.4,23.5,57,30.15,10.0,South,11.5,-,N/A,,Clear,180,2012-12-14 00:55:00
8:14 PM,36.9,23.7,59,30.15,10.0,South,10.4,-,N/A,,Clear,190,2012-12-14 01:14:00
8:35 PM,36.7,23.9,60,30.15,10.0,South,11.5,-,N/A,,Clear,190,2012-12-14 01:35:00
9:15 PM,36.9,23.9,59,30.14,10.0,South,11.5,-,N/A,,Clear,190,2012-12-14 02:15:00
9:35 PM,36.5,23.7,60,30.14,10.0,South,9.2,-,N/A,,Clear,190,2012-12-14 02:35:00
9:54 PM,36.9,23.4,58,30.14,10.0,SSW,8.1,-,N/A,,Clear,210,2012-12-14 02:54:00
10:15 PM,36.7,23.4,59,30.14,10.0,SSW,9.2,-,N/A,,Clear,210,2012-12-14 03:15:00
10:35 PM,36.5,23.4,59,30.15,10.0,SSW,9.2,-,N/A,,Clear,210,2012-12-14 03:35:00
10:54 PM,36.1,23.4,60,30.15,10.0,SSW,6.9,-,N/A,,Clear,210,2012-12-14 03:54:00
11:15 PM,35.6,23.5,62,30.15,10.0,SSW,6.9,-,N/A,,Clear,210,2012-12-14 04:15:00
11:35 PM,35.1,23.7,63,30.15,10.0,SSW,6.9,-,N/A,,Clear,210,2012-12-14 04:35:00
11:54 PM,34.7,23.5,64,30.15,10.0,SSW,5.8,-,N/A,,Clear,210,2012-12-14 04:54:00